sensor_id;sensor_type;location;lat;lon;timestamp;P1;durP1;ratioP1;P2;durP2;ratioP2
297;SDS011;133;49.626;9.680;2023-06-14T00:01:32;7.53;;;7.13;;
297;SDS011;133;49.626;9.680;2023-06-14T00:03:59;8.73;;;7.47;;
297;SDS011;133;49.626;9.680;2023-06-14T00:06:26;10.17;;;7.93;;
297;SDS011;133;49.626;9.680;2023-06-14T00:08:53;7.57;;;7.17;;
297;SDS011;133;49.626;9.680;2023-06-14T00:11:19;9.33;;;7.73;;
297;SDS011;133;49.626;9.680;2023-06-14T00:13:45;7.90;;;7.20;;
297;SDS011;133;49.626;9.680;2023-06-14T00:16:11;8.83;;;7.50;;
297;SDS011;133;49.626;9.680;2023-06-14T00:18:37;7.90;;;7.50;;
297;SDS011;133;49.626;9.680;2023-06-14T00:21:03;7.60;;;7.10;;
297;SDS011;133;49.626;9.680;2023-06-14T00:23:29;11.70;;;7.60;;
297;SDS011;133;49.626;9.680;2023-06-14T00:25:55;9.07;;;7.73;;
297;SDS011;133;49.626;9.680;2023-06-14T00:28:20;10.47;;;7.20;;
297;SDS011;133;49.626;9.680;2023-06-14T00:30:46;9.50;;;8.07;;
297;SDS011;133;49.626;9.680;2023-06-14T00:33:12;8.60;;;8.10;;
297;SDS011;133;49.626;9.680;2023-06-14T00:35:38;8.20;;;7.80;;
297;SDS011;133;49.626;9.680;2023-06-14T00:38:04;9.00;;;7.63;;
297;SDS011;133;49.626;9.680;2023-06-14T00:40:30;8.10;;;7.40;;
297;SDS011;133;49.626;9.680;2023-06-14T00:42:55;9.70;;;8.07;;
297;SDS011;133;49.626;9.680;2023-06-14T00:45:21;7.33;;;6.93;;
297;SDS011;133;49.626;9.680;2023-06-14T00:47:46;8.03;;;7.63;;
297;SDS011;133;49.626;9.680;2023-06-14T00:50:13;8.70;;;7.93;;
297;SDS011;133;49.626;9.680;2023-06-14T00:52:39;9.63;;;8.10;;
297;SDS011;133;49.626;9.680;2023-06-14T00:55:05;10.57;;;8.30;;
297;SDS011;133;49.626;9.680;2023-06-14T00:57:31;8.87;;;8.37;;
297;SDS011;133;49.626;9.680;2023-06-14T00:59:57;8.40;;;7.77;;
297;SDS011;133;49.626;9.680;2023-06-14T01:02:23;8.60;;;8.20;;
297;SDS011;133;49.626;9.680;2023-06-14T01:04:51;9.40;;;7.43;;
297;SDS011;133;49.626;9.680;2023-06-14T01:15:44;8.43;;;7.93;;
297;SDS011;133;49.626;9.680;2023-06-14T01:18:11;12.07;;;7.97;;
297;SDS011;133;49.626;9.680;2023-06-14T01:20:42;15.13;;;7.93;;
297;SDS011;133;49.626;9.680;2023-06-14T01:23:10;9.07;;;8.03;;
297;SDS011;133;49.626;9.680;2023-06-14T01:25:37;13.03;;;7.70;;
297;SDS011;133;49.626;9.680;2023-06-14T01:28:04;9.83;;;8.37;;
297;SDS011;133;49.626;9.680;2023-06-14T01:30:38;8.30;;;7.90;;
297;SDS011;133;49.626;9.680;2023-06-14T01:33:10;8.07;;;7.67;;
297;SDS011;133;49.626;9.680;2023-06-14T01:35:46;9.43;;;7.83;;
297;SDS011;133;49.626;9.680;2023-06-14T01:38:13;8.57;;;7.60;;
297;SDS011;133;49.626;9.680;2023-06-14T01:40:40;10.40;;;8.20;;
297;SDS011;133;49.626;9.680;2023-06-14T01:43:08;7.33;;;6.93;;
297;SDS011;133;49.626;9.680;2023-06-14T01:45:35;9.77;;;7.70;;
297;SDS011;133;49.626;9.680;2023-06-14T01:48:01;8.83;;;8.30;;
297;SDS011;133;49.626;9.680;2023-06-14T01:50:29;8.50;;;8.00;;
297;SDS011;133;49.626;9.680;2023-06-14T01:52:55;11.50;;;8.47;;
297;SDS011;133;49.626;9.680;2023-06-14T01:55:21;10.43;;;8.07;;
297;SDS011;133;49.626;9.680;2023-06-14T01:57:47;9.33;;;7.93;;
297;SDS011;133;49.626;9.680;2023-06-14T02:00:13;7.93;;;7.53;;
297;SDS011;133;49.626;9.680;2023-06-14T02:02:40;8.10;;;7.70;;
297;SDS011;133;49.626;9.680;2023-06-14T02:05:06;10.43;;;9.03;;
297;SDS011;133;49.626;9.680;2023-06-14T02:07:31;12.07;;;8.70;;
297;SDS011;133;49.626;9.680;2023-06-14T02:09:58;10.77;;;8.47;;
297;SDS011;133;49.626;9.680;2023-06-14T02:12:24;9.20;;;8.07;;
297;SDS011;133;49.626;9.680;2023-06-14T02:14:50;8.40;;;7.60;;
297;SDS011;133;49.626;9.680;2023-06-14T02:17:16;10.77;;;8.60;;
297;SDS011;133;49.626;9.680;2023-06-14T02:19:42;8.57;;;7.50;;
297;SDS011;133;49.626;9.680;2023-06-14T02:22:07;8.60;;;8.17;;
297;SDS011;133;49.626;9.680;2023-06-14T02:24:33;8.63;;;8.07;;
297;SDS011;133;49.626;9.680;2023-06-14T02:26:59;11.23;;;9.20;;
297;SDS011;133;49.626;9.680;2023-06-14T02:29:25;12.77;;;8.47;;
297;SDS011;133;49.626;9.680;2023-06-14T02:31:50;12.27;;;9.40;;
297;SDS011;133;49.626;9.680;2023-06-14T02:34:16;8.70;;;8.10;;
297;SDS011;133;49.626;9.680;2023-06-14T02:36:42;10.50;;;8.07;;
297;SDS011;133;49.626;9.680;2023-06-14T02:39:10;9.10;;;8.27;;
297;SDS011;133;49.626;9.680;2023-06-14T02:41:36;8.40;;;7.40;;
297;SDS011;133;49.626;9.680;2023-06-14T02:44:02;9.00;;;7.93;;
297;SDS011;133;49.626;9.680;2023-06-14T02:46:28;11.07;;;8.97;;
297;SDS011;133;49.626;9.680;2023-06-14T02:48:54;10.73;;;8.37;;
297;SDS011;133;49.626;9.680;2023-06-14T02:51:19;10.80;;;8.73;;
297;SDS011;133;49.626;9.680;2023-06-14T02:53:45;10.47;;;8.27;;
297;SDS011;133;49.626;9.680;2023-06-14T02:56:11;9.83;;;8.30;;
297;SDS011;133;49.626;9.680;2023-06-14T02:58:37;12.93;;;9.07;;
297;SDS011;133;49.626;9.680;2023-06-14T03:01:04;8.90;;;8.17;;
297;SDS011;133;49.626;9.680;2023-06-14T03:03:30;10.30;;;8.40;;
297;SDS011;133;49.626;9.680;2023-06-14T03:05:56;12.63;;;8.90;;
297;SDS011;133;49.626;9.680;2023-06-14T03:08:22;10.23;;;8.60;;
297;SDS011;133;49.626;9.680;2023-06-14T03:10:52;9.30;;;8.23;;
297;SDS011;133;49.626;9.680;2023-06-14T03:13:18;10.03;;;8.17;;
297;SDS011;133;49.626;9.680;2023-06-14T03:15:47;12.70;;;8.47;;
297;SDS011;133;49.626;9.680;2023-06-14T03:18:15;9.40;;;8.43;;
297;SDS011;133;49.626;9.680;2023-06-14T03:20:41;8.70;;;7.90;;
297;SDS011;133;49.626;9.680;2023-06-14T03:23:08;8.83;;;8.33;;
297;SDS011;133;49.626;9.680;2023-06-14T03:25:34;9.90;;;8.77;;
297;SDS011;133;49.626;9.680;2023-06-14T03:28:03;8.97;;;8.20;;
297;SDS011;133;49.626;9.680;2023-06-14T03:30:30;8.73;;;8.23;;
297;SDS011;133;49.626;9.680;2023-06-14T03:32:56;9.53;;;8.40;;
297;SDS011;133;49.626;9.680;2023-06-14T03:35:22;8.63;;;7.77;;
297;SDS011;133;49.626;9.680;2023-06-14T03:37:48;10.40;;;8.40;;
297;SDS011;133;49.626;9.680;2023-06-14T03:40:15;8.43;;;7.97;;
297;SDS011;133;49.626;9.680;2023-06-14T03:42:43;9.40;;;8.27;;
297;SDS011;133;49.626;9.680;2023-06-14T03:45:09;12.00;;;8.33;;
297;SDS011;133;49.626;9.680;2023-06-14T03:47:35;10.30;;;8.67;;
297;SDS011;133;49.626;9.680;2023-06-14T03:50:01;10.43;;;8.17;;
297;SDS011;133;49.626;9.680;2023-06-14T03:52:27;7.90;;;7.50;;
297;SDS011;133;49.626;9.680;2023-06-14T03:54:53;9.70;;;8.13;;
297;SDS011;133;49.626;9.680;2023-06-14T03:57:19;10.50;;;8.00;;
297;SDS011;133;49.626;9.680;2023-06-14T03:59:45;8.10;;;7.60;;
297;SDS011;133;49.626;9.680;2023-06-14T04:02:12;8.27;;;7.80;;
297;SDS011;133;49.626;9.680;2023-06-14T04:04:40;9.50;;;8.60;;
297;SDS011;133;49.626;9.680;2023-06-14T04:07:09;9.00;;;7.53;;
297;SDS011;133;49.626;9.680;2023-06-14T04:09:36;12.60;;;8.83;;
297;SDS011;133;49.626;9.680;2023-06-14T04:12:02;8.87;;;7.90;;
297;SDS011;133;49.626;9.680;2023-06-14T04:14:29;8.10;;;7.70;;
297;SDS011;133;49.626;9.680;2023-06-14T04:16:55;8.90;;;8.00;;
297;SDS011;133;49.626;9.680;2023-06-14T04:19:21;17.83;;;9.00;;
297;SDS011;133;49.626;9.680;2023-06-14T04:21:47;8.70;;;8.20;;
297;SDS011;133;49.626;9.680;2023-06-14T04:24:12;8.67;;;8.17;;
297;SDS011;133;49.626;9.680;2023-06-14T04:26:42;9.70;;;9.00;;
297;SDS011;133;49.626;9.680;2023-06-14T04:29:16;10.97;;;9.43;;
297;SDS011;133;49.626;9.680;2023-06-14T04:31:45;10.27;;;8.53;;
297;SDS011;133;49.626;9.680;2023-06-14T04:34:11;9.87;;;8.93;;
297;SDS011;133;49.626;9.680;2023-06-14T04:36:43;12.63;;;8.53;;
297;SDS011;133;49.626;9.680;2023-06-14T04:39:14;9.73;;;8.30;;
297;SDS011;133;49.626;9.680;2023-06-14T04:41:43;9.70;;;8.40;;
297;SDS011;133;49.626;9.680;2023-06-14T04:44:09;9.03;;;7.50;;
297;SDS011;133;49.626;9.680;2023-06-14T04:46:35;10.07;;;9.23;;
297;SDS011;133;49.626;9.680;2023-06-14T04:49:21;9.53;;;8.40;;
297;SDS011;133;49.626;9.680;2023-06-14T04:51:48;9.63;;;8.70;;
297;SDS011;133;49.626;9.680;2023-06-14T04:54:22;10.50;;;8.43;;
297;SDS011;133;49.626;9.680;2023-06-14T04:56:50;10.17;;;8.10;;
297;SDS011;133;49.626;9.680;2023-06-14T04:59:15;9.67;;;8.23;;
297;SDS011;133;49.626;9.680;2023-06-14T05:01:42;13.37;;;8.67;;
297;SDS011;133;49.626;9.680;2023-06-14T05:04:12;11.30;;;8.80;;
297;SDS011;133;49.626;9.680;2023-06-14T05:06:38;8.87;;;8.37;;
297;SDS011;133;49.626;9.680;2023-06-14T05:09:04;10.47;;;8.23;;
297;SDS011;133;49.626;9.680;2023-06-14T05:11:30;10.27;;;8.57;;
297;SDS011;133;49.626;9.680;2023-06-14T05:13:55;10.90;;;8.40;;
297;SDS011;133;49.626;9.680;2023-06-14T05:16:23;10.60;;;8.27;;
297;SDS011;133;49.626;9.680;2023-06-14T05:18:50;12.17;;;8.80;;
297;SDS011;133;49.626;9.680;2023-06-14T05:21:17;8.77;;;8.23;;
297;SDS011;133;49.626;9.680;2023-06-14T05:23:43;10.33;;;7.97;;
297;SDS011;133;49.626;9.680;2023-06-14T05:26:10;13.70;;;8.57;;
297;SDS011;133;49.626;9.680;2023-06-14T05:28:35;11.33;;;8.73;;
297;SDS011;133;49.626;9.680;2023-06-14T05:31:01;11.33;;;8.27;;
297;SDS011;133;49.626;9.680;2023-06-14T05:33:27;10.20;;;8.10;;
297;SDS011;133;49.626;9.680;2023-06-14T05:35:53;8.20;;;7.80;;
297;SDS011;133;49.626;9.680;2023-06-14T05:38:20;8.60;;;8.10;;
297;SDS011;133;49.626;9.680;2023-06-14T05:40:46;8.77;;;7.77;;
297;SDS011;133;49.626;9.680;2023-06-14T05:43:11;14.17;;;8.60;;
297;SDS011;133;49.626;9.680;2023-06-14T05:45:37;10.90;;;8.63;;
297;SDS011;133;49.626;9.680;2023-06-14T05:48:03;9.77;;;8.07;;
297;SDS011;133;49.626;9.680;2023-06-14T05:50:28;9.80;;;8.20;;
297;SDS011;133;49.626;9.680;2023-06-14T05:52:54;9.00;;;7.97;;
297;SDS011;133;49.626;9.680;2023-06-14T05:55:20;14.03;;;8.10;;
297;SDS011;133;49.626;9.680;2023-06-14T05:57:45;9.23;;;7.20;;
297;SDS011;133;49.626;9.680;2023-06-14T06:00:13;9.10;;;7.93;;
297;SDS011;133;49.626;9.680;2023-06-14T06:02:42;7.73;;;7.33;;
297;SDS011;133;49.626;9.680;2023-06-14T06:05:09;9.10;;;8.37;;
297;SDS011;133;49.626;9.680;2023-06-14T06:07:36;10.13;;;8.20;;
297;SDS011;133;49.626;9.680;2023-06-14T06:10:02;9.57;;;7.80;;
297;SDS011;133;49.626;9.680;2023-06-14T06:12:30;8.63;;;8.20;;
297;SDS011;133;49.626;9.680;2023-06-14T06:14:55;10.40;;;8.13;;
297;SDS011;133;49.626;9.680;2023-06-14T06:17:21;8.47;;;8.00;;
297;SDS011;133;49.626;9.680;2023-06-14T06:19:47;11.40;;;7.03;;
297;SDS011;133;49.626;9.680;2023-06-14T06:22:12;11.60;;;7.30;;
297;SDS011;133;49.626;9.680;2023-06-14T06:24:38;8.03;;;7.30;;
297;SDS011;133;49.626;9.680;2023-06-14T06:27:04;7.90;;;7.50;;
297;SDS011;133;49.626;9.680;2023-06-14T06:29:29;10.67;;;7.87;;
297;SDS011;133;49.626;9.680;2023-06-14T06:31:55;8.40;;;7.07;;
297;SDS011;133;49.626;9.680;2023-06-14T06:34:21;10.07;;;7.10;;
297;SDS011;133;49.626;9.680;2023-06-14T06:36:47;7.70;;;7.30;;
297;SDS011;133;49.626;9.680;2023-06-14T06:39:12;7.90;;;7.50;;
297;SDS011;133;49.626;9.680;2023-06-14T06:41:40;9.03;;;7.77;;
297;SDS011;133;49.626;9.680;2023-06-14T06:44:06;9.83;;;7.27;;
297;SDS011;133;49.626;9.680;2023-06-14T06:46:32;9.77;;;7.23;;
297;SDS011;133;49.626;9.680;2023-06-14T06:48:59;12.60;;;7.20;;
297;SDS011;133;49.626;9.680;2023-06-14T06:51:25;7.87;;;7.47;;
297;SDS011;133;49.626;9.680;2023-06-14T06:53:54;9.20;;;7.63;;
297;SDS011;133;49.626;9.680;2023-06-14T06:56:20;12.07;;;7.53;;
297;SDS011;133;49.626;9.680;2023-06-14T06:58:48;10.60;;;7.50;;
297;SDS011;133;49.626;9.680;2023-06-14T07:01:16;10.40;;;7.00;;
297;SDS011;133;49.626;9.680;2023-06-14T07:03:43;8.00;;;7.33;;
297;SDS011;133;49.626;9.680;2023-06-14T07:06:09;8.93;;;7.40;;
297;SDS011;133;49.626;9.680;2023-06-14T07:08:35;7.83;;;7.30;;
297;SDS011;133;49.626;9.680;2023-06-14T07:11:03;8.23;;;6.90;;
297;SDS011;133;49.626;9.680;2023-06-14T07:13:29;7.70;;;6.97;;
297;SDS011;133;49.626;9.680;2023-06-14T07:15:59;10.93;;;6.87;;
297;SDS011;133;49.626;9.680;2023-06-14T07:18:25;8.03;;;6.60;;
297;SDS011;133;49.626;9.680;2023-06-14T07:20:52;8.10;;;7.30;;
297;SDS011;133;49.626;9.680;2023-06-14T07:23:19;8.93;;;6.90;;
297;SDS011;133;49.626;9.680;2023-06-14T07:25:48;10.33;;;6.77;;
297;SDS011;133;49.626;9.680;2023-06-14T07:28:13;7.77;;;6.70;;
297;SDS011;133;49.626;9.680;2023-06-14T07:30:39;9.90;;;6.93;;
297;SDS011;133;49.626;9.680;2023-06-14T07:33:05;7.60;;;6.90;;
297;SDS011;133;49.626;9.680;2023-06-14T07:35:31;8.10;;;6.40;;
297;SDS011;133;49.626;9.680;2023-06-14T07:37:56;12.03;;;7.37;;
297;SDS011;133;49.626;9.680;2023-06-14T07:40:22;7.30;;;6.87;;
297;SDS011;133;49.626;9.680;2023-06-14T07:42:47;7.43;;;7.03;;
297;SDS011;133;49.626;9.680;2023-06-14T07:45:15;6.87;;;6.47;;
297;SDS011;133;49.626;9.680;2023-06-14T07:47:41;8.90;;;7.30;;
297;SDS011;133;49.626;9.680;2023-06-14T07:50:07;8.80;;;7.17;;
297;SDS011;133;49.626;9.680;2023-06-14T07:52:33;9.33;;;7.03;;
297;SDS011;133;49.626;9.680;2023-06-14T07:54:59;8.60;;;7.03;;
297;SDS011;133;49.626;9.680;2023-06-14T07:57:25;9.23;;;7.40;;
297;SDS011;133;49.626;9.680;2023-06-14T07:59:51;7.37;;;6.53;;
297;SDS011;133;49.626;9.680;2023-06-14T08:02:17;8.37;;;7.00;;
297;SDS011;133;49.626;9.680;2023-06-14T08:04:43;9.17;;;7.10;;
297;SDS011;133;49.626;9.680;2023-06-14T08:07:08;7.07;;;6.67;;
297;SDS011;133;49.626;9.680;2023-06-14T08:09:34;8.90;;;6.97;;
297;SDS011;133;49.626;9.680;2023-06-14T08:12:03;7.60;;;7.20;;
297;SDS011;133;49.626;9.680;2023-06-14T08:14:32;8.53;;;6.97;;
297;SDS011;133;49.626;9.680;2023-06-14T08:16:58;9.00;;;6.87;;
297;SDS011;133;49.626;9.680;2023-06-14T08:19:24;8.90;;;7.93;;
297;SDS011;133;49.626;9.680;2023-06-14T08:21:50;8.90;;;6.90;;
297;SDS011;133;49.626;9.680;2023-06-14T08:24:15;8.63;;;6.40;;
297;SDS011;133;49.626;9.680;2023-06-14T08:26:42;8.90;;;6.70;;
297;SDS011;133;49.626;9.680;2023-06-14T08:29:08;12.27;;;7.77;;
297;SDS011;133;49.626;9.680;2023-06-14T08:31:33;8.87;;;7.80;;
297;SDS011;133;49.626;9.680;2023-06-14T08:33:59;10.60;;;7.30;;
297;SDS011;133;49.626;9.680;2023-06-14T08:36:25;8.60;;;7.07;;
297;SDS011;133;49.626;9.680;2023-06-14T08:38:50;10.90;;;7.60;;
297;SDS011;133;49.626;9.680;2023-06-14T08:41:22;7.33;;;6.93;;
297;SDS011;133;49.626;9.680;2023-06-14T08:43:49;6.20;;;5.90;;
297;SDS011;133;49.626;9.680;2023-06-14T08:46:17;6.93;;;5.93;;
297;SDS011;133;49.626;9.680;2023-06-14T08:48:50;9.23;;;5.80;;
297;SDS011;133;49.626;9.680;2023-06-14T08:51:22;5.73;;;5.43;;
297;SDS011;133;49.626;9.680;2023-06-14T08:53:54;9.63;;;5.77;;
297;SDS011;133;49.626;9.680;2023-06-14T08:56:27;7.00;;;5.47;;
297;SDS011;133;49.626;9.680;2023-06-14T08:58:54;5.57;;;4.97;;
297;SDS011;133;49.626;9.680;2023-06-14T09:01:21;6.17;;;5.87;;
297;SDS011;133;49.626;9.680;2023-06-14T09:03:48;11.43;;;5.87;;
297;SDS011;133;49.626;9.680;2023-06-14T09:06:45;5.83;;;5.07;;
297;SDS011;133;49.626;9.680;2023-06-14T09:09:12;5.50;;;5.20;;
297;SDS011;133;49.626;9.680;2023-06-14T09:15:10;7.40;;;5.13;;
297;SDS011;133;49.626;9.680;2023-06-14T09:17:42;5.13;;;4.82;;
297;SDS011;133;49.626;9.680;2023-06-14T09:20:09;5.03;;;4.72;;
297;SDS011;133;49.626;9.680;2023-06-14T09:22:36;6.80;;;4.85;;
297;SDS011;133;49.626;9.680;2023-06-14T09:25:03;6.45;;;5.18;;
297;SDS011;133;49.626;9.680;2023-06-14T09:27:30;6.80;;;4.78;;
297;SDS011;133;49.626;9.680;2023-06-14T09:29:56;5.38;;;5.07;;
297;SDS011;133;49.626;9.680;2023-06-14T09:32:24;5.90;;;5.28;;
297;SDS011;133;49.626;9.680;2023-06-14T09:34:50;5.30;;;5.00;;
297;SDS011;133;49.626;9.680;2023-06-14T09:37:29;5.30;;;5.00;;
297;SDS011;133;49.626;9.680;2023-06-14T09:39:59;5.07;;;4.87;;
297;SDS011;133;49.626;9.680;2023-06-14T09:42:25;5.53;;;5.20;;
297;SDS011;133;49.626;9.680;2023-06-14T09:44:51;6.07;;;5.53;;
297;SDS011;133;49.626;9.680;2023-06-14T09:47:19;5.40;;;5.10;;
297;SDS011;133;49.626;9.680;2023-06-14T09:49:45;6.40;;;6.07;;
297;SDS011;133;49.626;9.680;2023-06-14T09:52:13;6.33;;;5.90;;
297;SDS011;133;49.626;9.680;2023-06-14T09:54:43;6.47;;;6.00;;
297;SDS011;133;49.626;9.680;2023-06-14T09:57:16;6.83;;;6.20;;
297;SDS011;133;49.626;9.680;2023-06-14T09:59:46;5.93;;;5.63;;
297;SDS011;133;49.626;9.680;2023-06-14T10:02:26;6.63;;;5.93;;
297;SDS011;133;49.626;9.680;2023-06-14T10:05:05;10.73;;;5.70;;
297;SDS011;133;49.626;9.680;2023-06-14T10:08:34;7.30;;;5.93;;
297;SDS011;133;49.626;9.680;2023-06-14T10:10:37;8.20;;;6.10;;
297;SDS011;133;49.626;9.680;2023-06-14T10:13:04;8.50;;;6.20;;
297;SDS011;133;49.626;9.680;2023-06-14T10:15:41;9.17;;;5.60;;
297;SDS011;133;49.626;9.680;2023-06-14T10:21:12;7.00;;;6.00;;
297;SDS011;133;49.626;9.680;2023-06-14T10:23:59;5.67;;;5.37;;
297;SDS011;133;49.626;9.680;2023-06-14T10:26:30;7.30;;;5.90;;
297;SDS011;133;49.626;9.680;2023-06-14T10:29:07;9.20;;;6.53;;
297;SDS011;133;49.626;9.680;2023-06-14T10:31:49;5.80;;;5.50;;
297;SDS011;133;49.626;9.680;2023-06-14T10:34:27;6.80;;;5.90;;
297;SDS011;133;49.626;9.680;2023-06-14T10:37:06;7.53;;;5.90;;
297;SDS011;133;49.626;9.680;2023-06-14T10:39:40;6.73;;;5.50;;
297;SDS011;133;49.626;9.680;2023-06-14T10:42:07;7.07;;;5.63;;
297;SDS011;133;49.626;9.680;2023-06-14T10:44:33;6.60;;;5.60;;
297;SDS011;133;49.626;9.680;2023-06-14T10:47:05;5.73;;;5.33;;
297;SDS011;133;49.626;9.680;2023-06-14T10:49:45;6.90;;;5.57;;
297;SDS011;133;49.626;9.680;2023-06-14T10:52:18;5.60;;;5.30;;
297;SDS011;133;49.626;9.680;2023-06-14T10:58:01;6.10;;;5.33;;
297;SDS011;133;49.626;9.680;2023-06-14T11:00:28;6.70;;;5.97;;
297;SDS011;133;49.626;9.680;2023-06-14T11:03:08;6.37;;;5.50;;
297;SDS011;133;49.626;9.680;2023-06-14T11:06:01;6.33;;;5.83;;
297;SDS011;133;49.626;9.680;2023-06-14T11:11:37;7.70;;;6.23;;
297;SDS011;133;49.626;9.680;2023-06-14T11:14:06;5.60;;;5.30;;
297;SDS011;133;49.626;9.680;2023-06-14T11:16:32;6.00;;;5.70;;
297;SDS011;133;49.626;9.680;2023-06-14T11:18:59;6.10;;;5.80;;
297;SDS011;133;49.626;9.680;2023-06-14T11:21:28;6.37;;;6.03;;
297;SDS011;133;49.626;9.680;2023-06-14T11:23:56;7.53;;;6.03;;
297;SDS011;133;49.626;9.680;2023-06-14T11:26:25;5.30;;;5.00;;
297;SDS011;133;49.626;9.680;2023-06-14T11:28:54;5.20;;;4.90;;
297;SDS011;133;49.626;9.680;2023-06-14T11:31:27;5.63;;;5.33;;
297;SDS011;133;49.626;9.680;2023-06-14T11:34:01;6.63;;;5.00;;
297;SDS011;133;49.626;9.680;2023-06-14T11:36:29;9.80;;;4.93;;
297;SDS011;133;49.626;9.680;2023-06-14T11:39:00;5.70;;;5.40;;
297;SDS011;133;49.626;9.680;2023-06-14T11:41:40;5.47;;;5.17;;
297;SDS011;133;49.626;9.680;2023-06-14T11:44:12;9.73;;;5.27;;
297;SDS011;133;49.626;9.680;2023-06-14T11:46:38;6.17;;;5.53;;
297;SDS011;133;49.626;9.680;2023-06-14T11:49:04;5.20;;;4.90;;
297;SDS011;133;49.626;9.680;2023-06-14T11:51:32;7.10;;;4.80;;
297;SDS011;133;49.626;9.680;2023-06-14T11:53:59;6.00;;;4.73;;
297;SDS011;133;49.626;9.680;2023-06-14T11:56:29;5.20;;;4.90;;
297;SDS011;133;49.626;9.680;2023-06-14T11:58:59;5.70;;;4.77;;
297;SDS011;133;49.626;9.680;2023-06-14T12:01:42;6.00;;;5.00;;
297;SDS011;133;49.626;9.680;2023-06-14T12:07:30;6.17;;;4.93;;
297;SDS011;133;49.626;9.680;2023-06-14T12:12:27;5.10;;;4.80;;
297;SDS011;133;49.626;9.680;2023-06-14T12:14:57;4.93;;;4.63;;
297;SDS011;133;49.626;9.680;2023-06-14T12:17:26;4.63;;;4.37;;
297;SDS011;133;49.626;9.680;2023-06-14T12:19:57;6.00;;;4.93;;
297;SDS011;133;49.626;9.680;2023-06-14T12:22:26;5.27;;;4.43;;
297;SDS011;133;49.626;9.680;2023-06-14T12:24:53;4.63;;;4.33;;
297;SDS011;133;49.626;9.680;2023-06-14T12:27:28;5.20;;;4.63;;
297;SDS011;133;49.626;9.680;2023-06-14T12:29:58;4.80;;;4.50;;
297;SDS011;133;49.626;9.680;2023-06-14T12:32:30;5.03;;;4.60;;
297;SDS011;133;49.626;9.680;2023-06-14T12:34:58;5.30;;;4.70;;
297;SDS011;133;49.626;9.680;2023-06-14T12:37:24;5.70;;;5.13;;
297;SDS011;133;49.626;9.680;2023-06-14T12:39:50;4.47;;;4.13;;
297;SDS011;133;49.626;9.680;2023-06-14T12:42:16;5.03;;;4.37;;
297;SDS011;133;49.626;9.680;2023-06-14T12:44:41;7.13;;;4.20;;
297;SDS011;133;49.626;9.680;2023-06-14T12:47:07;6.53;;;4.63;;
297;SDS011;133;49.626;9.680;2023-06-14T12:49:33;8.10;;;5.33;;
297;SDS011;133;49.626;9.680;2023-06-14T12:51:59;5.90;;;4.40;;
297;SDS011;133;49.626;9.680;2023-06-14T12:54:24;5.10;;;4.87;;
297;SDS011;133;49.626;9.680;2023-06-14T12:56:51;9.33;;;5.10;;
297;SDS011;133;49.626;9.680;2023-06-14T12:59:18;5.00;;;4.13;;
297;SDS011;133;49.626;9.680;2023-06-14T13:01:43;7.50;;;5.00;;
297;SDS011;133;49.626;9.680;2023-06-14T13:04:10;5.10;;;4.40;;
297;SDS011;133;49.626;9.680;2023-06-14T13:06:36;5.10;;;4.50;;
297;SDS011;133;49.626;9.680;2023-06-14T13:09:01;4.57;;;4.27;;
297;SDS011;133;49.626;9.680;2023-06-14T13:11:30;5.63;;;4.50;;
297;SDS011;133;49.626;9.680;2023-06-14T13:13:56;4.50;;;4.20;;
297;SDS011;133;49.626;9.680;2023-06-14T13:16:22;4.53;;;4.23;;
297;SDS011;133;49.626;9.680;2023-06-14T13:18:48;4.83;;;4.53;;
297;SDS011;133;49.626;9.680;2023-06-14T13:21:13;5.13;;;4.43;;
297;SDS011;133;49.626;9.680;2023-06-14T13:23:39;4.63;;;4.37;;
297;SDS011;133;49.626;9.680;2023-06-14T13:26:05;5.03;;;4.63;;
297;SDS011;133;49.626;9.680;2023-06-14T13:28:30;6.33;;;4.77;;
297;SDS011;133;49.626;9.680;2023-06-14T13:30:57;5.10;;;4.70;;
297;SDS011;133;49.626;9.680;2023-06-14T13:33:23;4.77;;;4.47;;
297;SDS011;133;49.626;9.680;2023-06-14T13:35:49;5.67;;;4.53;;
297;SDS011;133;49.626;9.680;2023-06-14T13:38:17;4.80;;;4.50;;
297;SDS011;133;49.626;9.680;2023-06-14T13:40:43;6.57;;;4.97;;
297;SDS011;133;49.626;9.680;2023-06-14T13:43:09;5.60;;;4.93;;
297;SDS011;133;49.626;9.680;2023-06-14T13:45:35;6.63;;;5.67;;
297;SDS011;133;49.626;9.680;2023-06-14T13:48:00;5.77;;;5.10;;
297;SDS011;133;49.626;9.680;2023-06-14T13:50:26;5.30;;;5.00;;
297;SDS011;133;49.626;9.680;2023-06-14T13:52:52;4.70;;;4.40;;
297;SDS011;133;49.626;9.680;2023-06-14T13:55:18;6.40;;;4.60;;
297;SDS011;133;49.626;9.680;2023-06-14T13:57:44;5.03;;;4.70;;
297;SDS011;133;49.626;9.680;2023-06-14T14:00:10;5.67;;;4.50;;
297;SDS011;133;49.626;9.680;2023-06-14T14:02:37;7.13;;;4.70;;
297;SDS011;133;49.626;9.680;2023-06-14T14:05:03;6.17;;;5.20;;
297;SDS011;133;49.626;9.680;2023-06-14T14:07:29;5.23;;;4.93;;
297;SDS011;133;49.626;9.680;2023-06-14T14:09:55;4.57;;;4.20;;
297;SDS011;133;49.626;9.680;2023-06-14T14:12:22;4.80;;;4.50;;
297;SDS011;133;49.626;9.680;2023-06-14T14:14:48;5.60;;;4.70;;
297;SDS011;133;49.626;9.680;2023-06-14T14:17:15;5.43;;;5.13;;
297;SDS011;133;49.626;9.680;2023-06-14T14:19:41;8.53;;;5.00;;
297;SDS011;133;49.626;9.680;2023-06-14T14:22:06;7.50;;;5.03;;
297;SDS011;133;49.626;9.680;2023-06-14T14:24:32;6.90;;;5.00;;
297;SDS011;133;49.626;9.680;2023-06-14T14:26:58;6.17;;;4.97;;
297;SDS011;133;49.626;9.680;2023-06-14T14:29:25;4.73;;;4.43;;
297;SDS011;133;49.626;9.680;2023-06-14T14:31:54;7.40;;;4.97;;
297;SDS011;133;49.626;9.680;2023-06-14T14:34:20;5.00;;;4.70;;
297;SDS011;133;49.626;9.680;2023-06-14T14:36:47;5.37;;;5.10;;
297;SDS011;133;49.626;9.680;2023-06-14T14:39:13;5.63;;;5.20;;
297;SDS011;133;49.626;9.680;2023-06-14T14:41:38;7.50;;;5.07;;
297;SDS011;133;49.626;9.680;2023-06-14T14:44:05;5.87;;;5.10;;
297;SDS011;133;49.626;9.680;2023-06-14T14:46:31;4.90;;;4.60;;
297;SDS011;133;49.626;9.680;2023-06-14T14:48:56;6.37;;;4.67;;
297;SDS011;133;49.626;9.680;2023-06-14T14:51:23;5.27;;;5.00;;
297;SDS011;133;49.626;9.680;2023-06-14T14:53:49;5.53;;;4.50;;
297;SDS011;133;49.626;9.680;2023-06-14T14:56:14;6.20;;;4.67;;
297;SDS011;133;49.626;9.680;2023-06-14T14:58:40;4.77;;;4.37;;
297;SDS011;133;49.626;9.680;2023-06-14T15:01:06;5.97;;;5.70;;
297;SDS011;133;49.626;9.680;2023-06-14T15:03:32;5.60;;;4.40;;
297;SDS011;133;49.626;9.680;2023-06-14T15:05:57;4.90;;;4.40;;
297;SDS011;133;49.626;9.680;2023-06-14T15:08:23;4.87;;;4.57;;
297;SDS011;133;49.626;9.680;2023-06-14T15:10:49;5.77;;;4.43;;
297;SDS011;133;49.626;9.680;2023-06-14T15:13:15;5.17;;;4.70;;
297;SDS011;133;49.626;9.680;2023-06-14T15:15:40;4.17;;;3.93;;
297;SDS011;133;49.626;9.680;2023-06-14T15:18:06;4.70;;;4.40;;
297;SDS011;133;49.626;9.680;2023-06-14T15:20:32;4.90;;;4.40;;
297;SDS011;133;49.626;9.680;2023-06-14T15:22:58;6.00;;;4.77;;
297;SDS011;133;49.626;9.680;2023-06-14T15:25:28;4.43;;;4.20;;
297;SDS011;133;49.626;9.680;2023-06-14T15:27:54;4.90;;;4.60;;
297;SDS011;133;49.626;9.680;2023-06-14T15:30:21;4.70;;;4.40;;
297;SDS011;133;49.626;9.680;2023-06-14T15:32:47;4.50;;;4.20;;
297;SDS011;133;49.626;9.680;2023-06-14T15:35:14;4.83;;;4.53;;
297;SDS011;133;49.626;9.680;2023-06-14T15:37:41;4.40;;;4.10;;
297;SDS011;133;49.626;9.680;2023-06-14T15:40:07;4.63;;;4.33;;
297;SDS011;133;49.626;9.680;2023-06-14T15:42:33;8.43;;;4.67;;
297;SDS011;133;49.626;9.680;2023-06-14T15:44:59;5.20;;;4.40;;
297;SDS011;133;49.626;9.680;2023-06-14T15:47:25;6.40;;;4.57;;
297;SDS011;133;49.626;9.680;2023-06-14T15:49:50;4.33;;;4.03;;
297;SDS011;133;49.626;9.680;2023-06-14T15:52:16;5.23;;;4.67;;
297;SDS011;133;49.626;9.680;2023-06-14T15:54:42;16.23;;;4.90;;
297;SDS011;133;49.626;9.680;2023-06-14T15:57:07;8.13;;;4.53;;
297;SDS011;133;49.626;9.680;2023-06-14T15:59:34;7.13;;;4.33;;
297;SDS011;133;49.626;9.680;2023-06-14T16:02:00;4.93;;;4.60;;
297;SDS011;133;49.626;9.680;2023-06-14T16:04:27;4.40;;;4.00;;
297;SDS011;133;49.626;9.680;2023-06-14T16:06:53;4.50;;;4.20;;
297;SDS011;133;49.626;9.680;2023-06-14T16:09:22;7.77;;;4.60;;
297;SDS011;133;49.626;9.680;2023-06-14T16:11:48;6.53;;;4.30;;